createdAt,value
2022-11-21T00:04:33.867Z,98388.94
2022-11-21T00:09:41.510Z,98376.98
2022-11-21T00:14:49.578Z,98374.23
2022-11-21T00:19:56.981Z,98372.09
2022-11-21T00:25:04.191Z,98370.27
2022-11-21T00:30:11.949Z,98366.81
2022-11-21T00:35:17.764Z,98366.20
2022-11-21T00:40:26.499Z,98358.77
2022-11-21T00:45:33.707Z,98362.48
2022-11-21T00:50:39.477Z,98358.20
2022-11-21T00:55:46.581Z,98359.52
2022-11-21T01:00:54.129Z,98352.93
2022-11-21T01:06:07.113Z,98348.10
2022-11-21T01:11:16.873Z,98348.98
2022-11-21T01:16:26.952Z,98345.18
2022-11-21T01:21:35.219Z,98342.42
2022-11-21T01:26:49.684Z,98332.86
2022-11-21T01:32:03.181Z,98335.60
2022-11-21T01:37:10.533Z,98325.54
2022-11-21T01:42:18.250Z,98327.04
2022-11-21T01:47:25.506Z,98322.37
2022-11-21T01:52:32.400Z,98328.48
2022-11-21T01:57:42.888Z,98343.09
2022-11-21T02:02:55.405Z,98348.80
2022-11-21T02:08:07.301Z,98349.27
2022-11-21T02:13:14.694Z,98347.56
2022-11-21T02:18:22.436Z,98346.06
2022-11-21T02:23:38.832Z,98340.02
2022-11-21T02:28:46.573Z,98339.22
2022-11-21T02:34:08.283Z,98330.73
2022-11-21T02:39:21.327Z,98330.23
2022-11-21T02:44:36.708Z,98336.91
2022-11-21T02:49:51.634Z,98332.14
2022-11-21T03:00:30.778Z,98318.34
2022-11-21T03:05:40.017Z,98313.70
2022-11-21T03:10:47.103Z,98322.10
2022-11-21T03:15:55.754Z,98319.30
2022-11-21T03:21:03.161Z,98316.48
2022-11-21T03:26:10.275Z,98312.08
2022-11-21T03:31:15.906Z,98302.29
2022-11-21T03:36:23.455Z,98298.64
2022-11-21T03:41:30.647Z,98295.58
2022-11-21T03:46:39.643Z,98294.11
2022-11-21T03:51:47.571Z,98292.19
2022-11-21T03:57:20.880Z,98291.34
2022-11-21T04:02:28.245Z,98290.46
2022-11-21T04:07:35.626Z,98295.48
2022-11-21T04:12:43.105Z,98305.67
2022-11-21T04:17:51.112Z,98310.16
2022-11-21T04:22:58.564Z,98308.98
2022-11-21T04:28:07.266Z,98304.09
2022-11-21T04:33:15.172Z,98307.95
2022-11-21T04:38:22.287Z,98300.48
2022-11-21T04:43:27.795Z,98290.23
2022-11-21T04:48:39.325Z,98281.26
2022-11-21T04:53:47.346Z,98282.44
2022-11-21T04:58:57.232Z,98279.19
2022-11-21T05:04:04.341Z,98275.52
2022-11-21T05:09:10.121Z,98271.52
2022-11-21T05:14:17.776Z,98259.62
2022-11-21T05:19:25.914Z,98256.65
2022-11-21T05:24:33.116Z,98249.87
2022-11-21T05:29:40.551Z,98253.81
2022-11-21T05:34:48.242Z,98252.04
2022-11-21T05:39:55.568Z,98246.23
2022-11-21T05:45:03.969Z,98239.67
2022-11-21T05:50:12.252Z,98230.96
2022-11-21T05:55:19.804Z,98230.45
2022-11-21T06:00:27.315Z,98229.54
2022-11-21T06:05:34.807Z,98215.60
2022-11-21T06:10:42.109Z,98202.05
2022-11-21T06:15:49.777Z,98204.59
2022-11-21T06:21:01.535Z,98209.26
2022-11-21T06:26:12.769Z,98207.08
2022-11-21T06:31:22.250Z,98210.88
2022-11-21T06:36:29.276Z,98224.39
2022-11-21T06:41:36.378Z,98217.38
2022-11-21T06:46:48.238Z,98218.55
2022-11-21T06:51:57.929Z,98204.59
2022-11-21T07:00:48.899Z,98213.59
2022-11-21T07:05:59.888Z,98203.63
2022-11-21T07:11:25.578Z,98200.09
2022-11-21T07:16:35.180Z,98201.55
2022-11-21T07:21:43.272Z,98197.98
2022-11-21T07:26:51.386Z,98192.91
2022-11-21T07:31:58.806Z,98185.45
2022-11-21T07:37:05.429Z,98181.70
2022-11-21T07:42:13.115Z,98177.93
2022-11-21T07:47:20.758Z,98174.41
2022-11-21T07:52:30.391Z,98177.52
2022-11-21T07:57:37.846Z,98169.41
2022-11-21T08:02:45.887Z,98157.59
2022-11-21T08:07:52.888Z,98149.33
2022-11-21T08:12:59.801Z,98138.88
2022-11-21T08:18:12.719Z,98137.55
2022-11-21T08:23:19.802Z,98134.96
2022-11-21T08:28:27.007Z,98127.34
2022-11-21T08:33:32.576Z,98127.54
2022-11-21T08:38:39.585Z,98133.34
2022-11-21T08:43:46.914Z,98131.23
2022-11-21T08:48:53.926Z,98127.91
2022-11-21T08:54:03.002Z,98127.73
2022-11-21T08:59:10.766Z,98127.23
2022-11-21T09:04:18.171Z,98129.75
2022-11-21T09:09:25.939Z,98137.61
2022-11-21T09:14:52.275Z,98134.42
2022-11-21T09:19:59.809Z,98129.14
2022-11-21T09:28:12.734Z,98129.14
2022-11-21T09:33:19.737Z,98127.68
2022-11-21T09:38:27.257Z,98130.15
2022-11-21T09:43:55.549Z,98129.55
2022-11-21T09:49:06.638Z,98126.14
2022-11-21T09:54:21.913Z,98124.04
2022-11-21T09:59:36.374Z,98119.55
2022-11-21T10:04:43.956Z,98116.08
2022-11-21T10:10:05.427Z,98114.52
2022-11-21T10:15:25.363Z,98107.30
2022-11-21T10:20:47.692Z,98106.34
2022-11-21T10:25:59.390Z,98102.84
2022-11-21T10:31:10.423Z,98099.32
2022-11-21T10:36:27.064Z,98101.65
2022-11-21T10:41:47.914Z,98095.23
2022-11-21T10:47:00.332Z,98093.53
2022-11-21T10:52:13.152Z,98092.30
2022-11-21T10:57:21.914Z,98086.23
2022-11-21T11:02:29.434Z,98080.54
2022-11-21T11:07:36.545Z,98082.64
2022-11-21T11:13:08.744Z,98081.77
2022-11-21T11:18:26.909Z,98072.99
2022-11-21T11:23:34.052Z,98065.72
2022-11-21T11:28:41.662Z,98064.35
2022-11-21T11:33:58.585Z,98057.32
2022-11-21T11:39:18.673Z,98060.94
2022-11-21T11:44:51.390Z,98053.95
2022-11-21T11:50:13.588Z,98053.27
2022-11-21T11:55:27.712Z,98049.25
2022-11-21T12:00:41.881Z,98043.20
2022-11-21T12:06:02.449Z,98035.58
2022-11-21T12:11:38.764Z,98029.36
2022-11-21T12:16:47.193Z,98032.59
2022-11-21T12:21:54.740Z,98033.20
2022-11-21T12:27:15.439Z,98031.73
2022-11-21T12:32:36.461Z,98034.92
2022-11-21T12:37:56.047Z,98030.44
2022-11-21T12:43:18.088Z,98030.33
2022-11-21T12:49:04.824Z,98031.39
2022-11-21T12:54:31.895Z,98025.71
2022-11-21T12:59:49.590Z,98022.58
2022-11-21T13:04:59.041Z,98025.13
2022-11-21T13:10:14.280Z,98021.41
2022-11-21T13:15:31.758Z,98021.94
2022-11-21T13:20:52.257Z,98023.27
2022-11-21T13:26:02.071Z,98020.53
2022-11-21T13:31:31.234Z,98019.44
2022-11-21T13:36:40.451Z,98018.48
2022-11-21T13:42:22.143Z,98020.92
2022-11-21T13:48:11.251Z,98018.54
2022-11-21T13:53:42.253Z,98019.97
2022-11-21T13:59:03.969Z,98011.55
2022-11-21T14:04:43.989Z,98004.89
2022-11-21T14:09:53.163Z,97992.98
2022-11-21T14:15:21.958Z,97990.71
2022-11-21T14:20:32.665Z,97991.48
2022-11-21T14:25:47.565Z,97990.20
2022-11-21T14:31:00.995Z,97986.88
2022-11-21T14:36:11.029Z,97994.13
2022-11-21T14:41:32.062Z,97997.99
2022-11-21T14:46:41.302Z,98004.79
2022-11-21T14:51:52.391Z,98007.66
2022-11-21T14:57:01.591Z,98007.56
2022-11-21T15:02:15.894Z,98005.77
2022-11-21T15:07:31.843Z,98009.98
2022-11-21T15:12:47.900Z,98008.98
2022-11-21T15:23:35.649Z,98002.48
2022-11-21T15:28:58.742Z,98010.05
2022-11-21T15:39:38.003Z,98011.67
2022-11-21T15:45:00.926Z,98007.83
2022-11-21T15:50:09.755Z,98007.52
2022-11-21T15:55:22.216Z,98001.81
2022-11-21T16:00:29.361Z,97998.05
2022-11-21T16:05:36.772Z,97993.81
2022-11-21T16:10:44.687Z,97999.23
2022-11-21T16:15:52.100Z,97993.02
2022-11-21T16:21:11.736Z,97993.55
2022-11-21T16:26:19.518Z,97996.48
2022-11-21T16:31:28.655Z,97996.52
2022-11-21T16:36:35.840Z,97999.11
2022-11-21T16:41:46.031Z,98004.02
2022-11-21T16:46:55.571Z,98013.07
2022-11-21T16:52:03.198Z,98017.07
2022-11-21T16:57:10.687Z,98012.45
2022-11-21T17:02:17.680Z,98011.71
2022-11-21T17:07:25.449Z,98015.77
2022-11-21T17:12:36.250Z,98021.41
2022-11-21T17:17:43.539Z,98020.11
2022-11-21T17:22:50.617Z,98019.81
2022-11-21T17:27:58.219Z,98021.60
2022-11-21T17:33:05.280Z,98021.83
2022-11-21T17:38:12.412Z,98028.20
2022-11-21T17:43:18.107Z,98029.76
2022-11-21T17:48:25.496Z,98033.21
2022-11-21T17:59:03.489Z,98036.23
2022-11-21T18:04:15.039Z,98034.36
2022-11-21T18:09:22.813Z,98027.97
2022-11-21T18:14:28.874Z,98022.77
2022-11-21T18:19:36.224Z,98023.00
2022-11-21T18:24:43.043Z,98023.59
2022-11-21T18:29:48.735Z,98026.48
2022-11-21T18:34:56.253Z,98025.60
2022-11-21T18:40:03.769Z,98024.76
2022-11-21T18:45:12.369Z,98021.04
2022-11-21T18:50:19.901Z,98025.36
2022-11-21T18:55:28.220Z,98025.58
2022-11-21T19:00:35.222Z,98031.21
2022-11-21T19:05:44.255Z,98036.13
2022-11-21T19:10:51.962Z,98034.92
2022-11-21T19:16:01.789Z,98042.92
2022-11-21T19:21:11.094Z,98047.64
2022-11-21T19:26:21.775Z,98056.69
2022-11-21T19:31:28.923Z,98060.46
2022-11-21T19:43:12.004Z,98058.83
2022-11-21T19:48:19.729Z,98060.19
2022-11-21T19:53:28.255Z,98063.79
2022-11-21T19:58:35.312Z,98069.46
2022-11-21T20:03:44.537Z,98070.83
2022-11-21T20:08:55.469Z,98079.35
2022-11-21T20:14:02.926Z,98082.11
2022-11-21T20:19:13.632Z,98081.80
2022-11-21T20:24:21.255Z,98079.63
2022-11-21T20:29:28.766Z,98081.45
2022-11-21T20:34:36.449Z,98080.60
2022-11-21T20:39:43.531Z,98082.86
2022-11-21T20:45:54.489Z,98082.84
2022-11-21T20:50:48.837Z,98086.04
2022-11-21T20:55:46.459Z,98092.02
2022-11-21T21:00:53.773Z,98092.88
2022-11-21T21:06:05.592Z,98089.25
2022-11-21T21:11:36.927Z,98088.20
2022-11-21T21:16:44.785Z,98086.61
2022-11-21T21:21:52.127Z,98084.55
2022-11-21T21:26:57.662Z,98082.39
2022-11-21T21:32:04.952Z,98087.98
2022-11-21T21:37:12.363Z,98089.91
2022-11-21T21:42:19.877Z,98091.41
2022-11-21T21:47:27.179Z,98090.89
2022-11-21T21:52:35.693Z,98088.49
2022-11-21T21:57:47.179Z,98090.30
2022-11-21T22:03:01.282Z,98092.06
2022-11-21T22:08:08.762Z,98095.80
2022-11-21T22:13:16.073Z,98096.52
2022-11-21T22:18:22.277Z,98088.16
2022-11-21T22:23:30.830Z,98088.56
2022-11-21T22:28:38.077Z,98089.11
2022-11-21T22:33:44.663Z,98092.76
2022-11-21T22:38:55.186Z,98096.98
2022-11-21T22:44:02.658Z,98100.13
2022-11-21T22:49:11.329Z,98098.05
2022-11-21T22:54:20.956Z,98095.77
2022-11-21T22:59:29.873Z,98097.54
2022-11-21T23:04:37.200Z,98094.80
2022-11-21T23:09:44.709Z,98092.17
2022-11-21T23:14:53.041Z,98084.42
2022-11-21T23:20:00.644Z,98077.74
2022-11-21T23:25:08.988Z,98076.69
2022-11-21T23:30:18.412Z,98073.52
2022-11-21T23:35:25.414Z,98069.55
2022-11-21T23:40:32.718Z,98056.39
2022-11-21T23:45:40.025Z,98058.48
2022-11-21T23:50:45.763Z,98050.30
2022-11-21T23:55:53.910Z,98055.80
